Airfield :







YOU CAN JOIN US ON...

 
LOGIN :

Register | Disclaimer

   EN    FR    IT 

 









Legend :    VFR   Marginal VFR   IFR   Intensive IFR   Very Intensive IFR
Visi :
Ceiling :
>= 8 km
>= 3000ft
5 to 8 km
1000 to 3000 ft
1500m to 5 km
500 to 1000 ft
800 to 1500m
200 to 500 ft
< 800m
< 200 ft
Symbols :   Thunderstorms  Fog  Heavy snow  Heavy precipitations  Wind > 20 kt







- Airport Elevation : 20 ft
- IATA code : BOS


KBOS - General Edward Lawrence Logan International

CURRENT METAR :
  • 210454Z 12008KT 1 1/2SM -SN BR FEW008 BKN026 OVC032 M03/M06 A3022 RMK AO2 SLP232 P0004 T10331056 410061061

EXPIRED METARs :
  • 210430Z 13009KT 1 1/2SM -SN BR FEW006 BKN017 OVC032 M03/M06 A3024 RMK AO2 P0003 T10331056
  • 210354Z 17005KT 1SM R04R/P6000FT -SN BR FEW009 OVC014 M03/M06 A3028 RMK AO2 PRESFR SLP252 P0003 T10331056
  • 210335Z 18004KT 1SM R04R/P6000FT -SN BR VV013 M03/M06 A3030 RMK AO2 P0002 T10331056
  • 210254Z 17005KT 1SM R04R/P6000FT -SN VV018 M03/M07 A3033 RMK AO2 SLP268 P0002 60002 T10331067 56030

TAF KBOS
Valid from the 21 at 06:00 until the 22 at 12:00 UTC


210533Z 2106/2212 12008KT 1 1/2SM -SN BR FEW008 BKN026 OVC030
FM210700 14008KT 3/4SM FZRASNPL OVC008
FM210800 14009KT 2SM -FZRAPL BR OVC008
FM211100 11005KT 6SM BR VCSH OVC008
FM211400 27006KT P6SM BKN008
FM211600 27006KT P6SM BKN200
FM211900 27010G18KT P6SM SCT200
FM220800 29008KT P6SM BKN250
KZBW FIR / North America



MET'MAP, your aeronautical weather chart ! - Copyright ORBIFLY December 2007 - Disclaimer

ORBIFLY MET'MAP TEAM :

Programming & Development : Alexandra Zaïnal
Concept & Development : Baudouin d'Aumeries
Co-Development & Prog : Marc-Olivier Méhu
Technical & hardware support : Manuel Goepfert

Contact : metmap@orbifly.com




SOURCES & CREDITS :

   NOAA